Latest Coastal Weather Observations for Moruya Airport

IDN60701

Issued at 7:12 am EDT Monday 22 December 2014 (issued every 10 minutes, with the page automatically refreshed every 10 minutes)

About coastal observations | Map of coastal stations | Coastal observations for NSW | Marine services | Other Formats
Station Details ID: 069148 Name: MORUYA AIRPORT AWS Lat: -35.90 Lon: 150.14 Height: 4.0 m
Data from the previous 72 hours. | See also: Recent months for locations in New South Wales
Date/Time
EDT
Temp

°C
Wind Pressure Rain
since 9am
mm
Weather Cloud Vis
km
Sea
Height
m
Swell
Dir
 
Speed
knots
Gust
knots
hPa Trend Height
m
Period
s
Dir
22/07:00am 18.2 CALM 0 0 1015.1 - 0.0 - - 10 - - - -
22/06:30am 17.2 CALM 0 0 1014.8 - 0.0 - - 10 - - - -
22/06:23am 17.0 CALM 0 0 1014.7 - 0.0 - - 8 - - - -
22/06:00am 16.2 NW 3 4 1014.6 - 0.0 - - 4 - - - -
22/05:54am 16.1 NW 1 4 1014.5 - 0.0 - - 5 - - - -
22/05:31am 16.5 NW 4 5 1014.3 - 0.0 - - 9 - - - -
22/05:30am 16.5 NW 4 5 1014.2 - 0.0 - - 9 - - - -
22/05:00am 15.7 N 1 3 1014.0 - 0.0 - - 3 - - - -
22/04:30am 15.8 CALM 0 0 1014.0 - 0.0 - - 1 - - - -
22/04:00am 16.3 CALM 0 0 1014.0 - 0.0 - - 3 - - - -
22/03:14am 16.8 CALM 0 0 1014.1 - 0.0 - - 5 - - - -
22/03:09am 16.7 CALM 0 0 1014.2 - 0.0 - - 8 - - - -
22/03:00am 16.7 NNW 2 4 1014.1 - 0.0 - - 6 - - - -
22/02:32am 16.9 CALM 0 0 1014.5 - 0.0 - - 5 - - - -
22/02:30am 16.6 CALM 0 0 1014.5 - 0.0 - - 6 - - - -
22/02:08am 16.8 NW 1 4 1014.6 - 0.0 - - 6 - - - -
22/02:00am 17.3 NW 3 4 1014.6 - 0.0 - - 6 - - - -
22/01:51am 17.1 CALM 0 3 1014.6 - 0.0 - - 5 - - - -
22/01:30am 17.2 W 1 4 1014.8 - 0.0 - - 7 - - - -
22/01:00am 17.0 CALM 0 0 1015.0 - 0.0 - - 8 - - - -
22/12:30am 17.4 W 2 6 1015.3 - 0.0 - - 10 - - - -
 
Date/Time
EDT
Temp

°C
Wind Pressure Rain
since 9am
mm
Weather Cloud Vis
km
Sea
Height
m
Swell
Dir
 
Speed
knots
Gust
knots
hPa Trend Height
m
Period
s
Dir
21/11:30pm 17.7 W 4 5 1015.4 - 0.0 - - 10 - - - -
21/11:00pm 17.7 CALM 0 0 1015.4 - 0.0 - - 9 - - - -
21/10:30pm 17.7 CALM 0 0 1015.6 - 0.0 - - 10 - - - -
21/10:00pm 18.3 NNW 2 4 1015.4 - 0.0 - - 10 - - - -
21/09:30pm 19.1 N 3 4 1015.4 - 0.0 - Partly cloudy 10 - - - -
21/09:00pm 20.1 NE 9 12 1015.0 - 0.0 - Mostly clear 10 - - - -
21/08:30pm 19.9 NE 7 9 1014.8 - 0.0 - Partly cloudy 10 - - - -
21/08:00pm 20.2 ENE 9 10 1014.6 - 0.0 - Partly cloudy 9 - - - -
21/07:30pm 20.8 NE 9 11 1014.2 - 0.0 - Partly cloudy 10 - - - -
21/07:00pm 20.8 NE 9 11 1014.0 - 0.0 - - 10 - - - -
21/06:30pm 21.9 NE 10 15 1013.8 - 0.0 - Partly cloudy 10 - - - -
21/06:00pm 22.2 NE 11 14 1013.5 - 0.0 - Mostly clear 10 - - - -
21/05:30pm 21.5 NE 12 16 1013.5 - 0.0 - - 10 - - - -
21/05:00pm 22.6 NE 13 17 1013.5 - 0.0 - - 10 - - - -
21/04:30pm 23.0 NE 13 19 1013.5 - 0.0 - - 10 - - - -
21/04:00pm 23.2 NE 13 17 1013.6 - 0.0 - - 10 - - - -
21/03:30pm 23.9 NE 14 19 1013.8 - 0.0 - - 10 - - - -
21/03:00pm 23.4 NE 14 19 1014.2 - 0.0 - - 10 - - - -
21/02:30pm 22.9 NE 15 19 1014.3 - 0.0 - - 10 - - - -
21/02:00pm 22.9 NE 15 20 1014.5 - 0.0 - - 10 - - - -
21/01:30pm 22.9 NE 15 21 1015.1 - 0.0 - - 10 - - - -
21/01:00pm 23.1 NE 17 23 1015.1 - 0.0 - - 10 - - - -
21/12:30pm 22.7 NE 15 19 1015.8 - 0.0 - - 10 - - - -
21/12:00pm 22.7 NE 14 18 1016.2 - 0.0 - - 10 - - - -
21/11:30am 22.4 NE 13 17 1016.5 - 0.0 - - 10 - - - -
21/11:00am 22.3 NE 12 16 1016.7 - 0.0 - - 10 - - - -
21/10:30am 22.1 NE 13 16 1016.8 - 0.0 - - 10 - - - -
21/10:00am 21.9 NE 11 14 1016.8 - 0.0 - - 10 - - - -
21/09:30am 20.9 NE 11 14 1017.0 - 0.0 - - 10 - - - -
21/09:00am 21.5 NNE 9 13 1016.9 - 0.0 - - 10 - - - -
21/08:30am 20.6 N 7 9 1017.2 - 0.0 - - 10 - - - -
21/08:00am 19.4 NNW 6 9 1017.2 - 0.0 - - 10 - - - -
21/07:30am 18.5 N 5 7 1017.1 - 0.0 - - 10 - - - -
21/07:00am 17.4 N 3 4 1016.9 - 0.0 - - 10 - - - -
21/06:30am 15.0 N 1 4 1016.9 - 0.0 - - 10 - - - -
21/06:00am 14.1 N 1 3 1016.8 - 0.0 - - 10 - - - -
21/05:30am 14.5 NNW 5 6 1016.7 - 0.0 - - 10 - - - -
21/05:00am 14.7 NNW 6 7 1016.5 - 0.0 - - 10 - - - -
21/04:30am 14.6 N 2 5 1016.6 - 0.0 - - 10 - - - -
21/04:00am 15.5 NNW 5 7 1016.7 - 0.0 - Partly cloudy 10 - - - -
21/03:30am 15.1 NNE 2 4 1016.9 - 0.0 - Partly cloudy 10 - - - -
21/03:00am 14.9 CALM 0 0 1017.1 - 0.0 - Partly cloudy 10 - - - -
21/02:30am 14.6 CALM 0 0 1017.1 - 0.0 - Partly cloudy 10 - - - -
21/02:00am 15.0 CALM 0 0 1017.4 - 0.0 - Partly cloudy 10 - - - -
21/01:30am 15.5 N 3 4 1017.6 - 0.0 - Partly cloudy 10 - - - -
21/01:00am 15.7 N 1 3 1017.8 - 0.0 - Partly cloudy 10 - - - -
21/12:30am 16.0 CALM 0 3 1018.2 - 0.0 - Partly cloudy 10 - - - -
21/12:00am 16.7 NNW 3 5 1018.5 - 0.0 - Partly cloudy 10 - - - -
 
Date/Time
EDT
Temp

°C
Wind Pressure Rain
since 9am
mm
Weather Cloud Vis
km
Sea
Height
m
Swell
Dir
 
Speed
knots
Gust
knots
hPa Trend Height
m
Period
s
Dir
20/11:30pm 16.9 NNW 4 6 1018.7 - 0.0 - Partly cloudy 10 - - - -
20/11:00pm 17.2 NNW 4 6 1018.7 - 0.0 - Partly cloudy 10 - - - -
20/10:30pm 17.7 NNW 3 4 1018.8 - 0.0 - Partly cloudy 10 - - - -
20/10:00pm 18.2 N 4 5 1018.9 - 0.0 - Partly cloudy 10 - - - -
20/09:30pm 18.7 NE 5 7 1018.7 - 0.0 - Partly cloudy 10 - - - -
20/09:00pm 18.7 NE 5 6 1018.5 - 0.0 - Partly cloudy 10 - - - -
20/08:30pm 18.8 ENE 6 7 1018.3 - 0.0 - Partly cloudy 10 - - - -
20/08:00pm 18.9 E 6 7 1018.2 - 0.0 - Cloudy 10 - - - -
20/07:30pm 19.1 E 6 7 1017.8 - 0.0 - Cloudy 10 - - - -
20/07:00pm 19.4 ENE 6 7 1017.5 - 0.0 - Partly cloudy 10 - - - -
20/06:30pm 20.1 ENE 6 8 1017.1 - 0.0 - - 10 - - - -
20/06:00pm 20.2 ENE 7 9 1016.7 - 0.0 - - 10 - - - -
20/05:30pm 20.2 ENE 8 10 1016.6 - 0.0 - - 10 - - - -
20/05:00pm 20.6 E 9 11 1016.6 - 0.0 - Partly cloudy 10 - - - -
20/04:30pm 20.8 E 9 11 1016.6 - 0.0 - - 10 - - - -
20/04:00pm 20.8 E 10 12 1016.6 - 0.0 - - 10 - - - -
20/03:30pm 21.0 ENE 11 13 1016.6 - 0.0 - - 10 - - - -
20/03:00pm 20.7 ENE 12 14 1016.7 - 0.0 - - 10 - - - -
20/02:30pm 20.9 ENE 11 13 1016.8 - 0.0 - - 10 - - - -
20/02:00pm 20.8 ENE 12 14 1016.6 - 0.0 - - 10 - - - -
20/01:30pm 20.7 ENE 13 15 1016.8 - 0.0 - - 10 - - - -
20/01:00pm 21.3 NE 13 16 1017.0 - 0.0 - - 10 - - - -
20/12:30pm 20.4 NE 13 15 1017.3 - 0.0 - - 10 - - - -
20/12:00pm 20.6 ENE 12 15 1017.5 - 0.0 - - 10 - - - -
20/11:30am 20.5 NE 13 15 1017.5 - 0.0 - Partly cloudy 10 - - - -
20/11:00am 19.4 ENE 11 13 1017.7 - 0.0 - Partly cloudy 10 - - - -
20/10:30am 19.5 ENE 11 13 1017.4 - 0.0 - - 10 - - - -
20/10:00am 18.7 ENE 9 11 1017.5 - 0.0 - Partly cloudy 10 - - - -
20/09:30am 18.4 ENE 8 10 1017.9 - 0.0 - Partly cloudy 10 - - - -
20/09:00am 18.4 E 8 9 1017.8 - 0.0 - Mostly clear 10 - - - -
20/08:30am 18.1 ENE 6 7 1017.8 - 0.0 - - 10 - - - -
20/08:00am 17.3 ENE 5 6 1017.9 - 0.0 - - 10 - - - -
20/07:30am 16.2 N 3 5 1017.8 - 0.0 - Partly cloudy 10 - - - -
20/07:00am 14.7 NNW 1 3 1017.7 - 0.0 - Partly cloudy 10 - - - -
20/06:30am 14.1 CALM 0 0 1017.6 - 0.0 - Partly cloudy 10 - - - -
20/06:00am 13.6 CALM 0 0 1017.5 - 0.0 - Cloudy 10 - - - -
20/05:30am 13.4 CALM 0 0 1017.4 - 0.0 - Partly cloudy 10 - - - -
20/05:00am 13.1 CALM 0 0 1017.3 - 0.0 - Partly cloudy 10 - - - -
20/04:30am 12.6 CALM 0 0 1017.1 - 0.0 - Partly cloudy 10 - - - -
20/04:00am 12.8 CALM 0 0 1017.2 - 0.0 - - 10 - - - -
20/03:30am 13.4 CALM 0 3 1017.3 - 0.0 - Partly cloudy 10 - - - -
20/03:00am 14.2 WNW 3 5 1017.5 - 0.0 - Partly cloudy 10 - - - -
20/02:30am 14.5 NNW 4 7 1017.7 - 0.0 - Partly cloudy 10 - - - -
20/02:00am 14.8 NNW 5 8 1018.0 - 0.0 - Partly cloudy 10 - - - -
20/01:30am 15.1 N 6 7 1018.2 - 0.0 - Partly cloudy 10 - - - -
20/01:00am 15.4 NNW 6 11 1018.4 - 0.0 - Cloudy 10 - - - -
20/12:30am 16.0 NW 4 5 1018.5 - 0.0 - Cloudy 10 - - - -
20/12:00am 16.6 WSW 3 6 1018.6 - 0.0 - Cloudy 10 - - - -
 
Date/Time
EDT
Temp

°C
Wind Pressure Rain
since 9am
mm
Weather Cloud Vis
km
Sea
Height
m
Swell
Dir
 
Speed
knots
Gust
knots
hPa Trend Height
m
Period
s
Dir
19/11:30pm 16.9 SSW 4 7 1018.6 - 0.0 - Cloudy 10 - - - -
19/11:00pm 17.1 S 6 8 1018.7 - 0.0 - Cloudy 10 - - - -
19/10:30pm 17.3 S 6 9 1018.5 - 0.0 - Cloudy 10 - - - -
19/10:00pm 17.5 S 9 13 1018.3 - 0.0 - Partly cloudy 10 - - - -
19/09:30pm 17.8 SSE 10 13 1018.0 - 0.0 - Partly cloudy 10 - - - -
19/09:00pm 17.8 SSE 8 13 1017.7 - 0.0 - Cloudy 10 - - - -
19/08:30pm 18.0 SSE 8 12 1017.3 - 0.0 - Partly cloudy 10 - - - -
19/08:00pm 18.2 SSE 9 12 1017.0 - 0.0 - Partly cloudy 10 - - - -
19/07:30pm 18.3 SSE 11 13 1016.4 - 0.0 - Partly cloudy 10 - - - -
19/07:00pm 18.7 SSE 8 11 1015.8 - 0.0 - Partly cloudy 10 - - - -
19/06:30pm 19.1 SE 10 15 1015.3 - 0.0 - Partly cloudy 10 - - - -
19/06:00pm 19.3 SSE 10 15 1014.9 - 0.0 - Mostly clear 10 - - - -
19/05:30pm 19.9 SE 11 15 1014.4 - 0.0 - - 10 - - - -
19/05:00pm 20.2 SSE 11 15 1014.2 - 0.0 - - 10 - - - -
19/04:30pm 20.6 SE 10 14 1014.0 - 0.0 - - 10 - - - -
19/04:00pm 21.2 SE 10 14 1013.8 - 0.0 - - 10 - - - -
19/03:30pm 21.2 SE 11 15 1013.6 - 0.0 - - 10 - - - -
19/03:00pm 21.4 SE 10 14 1013.5 - 0.0 - - 10 - - - -
19/02:30pm 20.7 SE 11 15 1013.3 - 0.0 - - 10 - - - -
19/02:00pm 21.1 SE 10 15 1013.3 - 0.0 - - 10 - - - -
19/01:30pm 21.3 SE 10 13 1013.2 - 0.0 - - 10 - - - -
19/01:00pm 20.6 SE 10 14 1013.1 - 0.0 - Partly cloudy 10 - - - -
19/12:30pm 20.7 SE 13 17 1013.1 - 0.0 - - 10 - - - -
19/12:00pm 20.6 SSE 14 17 1012.8 - 0.0 - - 10 - - - -
19/11:30am 20.4 SSE 14 19 1012.7 - 0.0 - Partly cloudy 10 - - - -
19/11:00am 20.5 SSE 13 19 1012.8 - 0.0 - Partly cloudy 10 - - - -
19/10:30am 21.0 S 10 14 1012.9 - 0.0 - - 10 - - - -
19/10:00am 20.1 S 9 13 1012.9 - 0.0 - Partly cloudy 10 - - - -
19/09:30am 19.5 S 9 12 1012.8 - 0.0 - - 10 - - - -
19/09:00am 19.1 SSW 10 15 1012.9 - 0.0 - - 10 - - - -
19/08:30am 18.5 SW 10 15 1012.6 - 0.0 - - 10 - - - -
19/08:00am 17.6 SW 10 13 1012.3 - 0.0 - - 10 - - - -
19/07:30am 16.6 SW 7 9 1012.0 - 0.0 - - 10 - - - -

Other Formats:

Comma delimited format used in spreadsheet applications
http://www.bom.gov.au/fwo/IDN60701/IDN60701.95937.axf

JavaScript Object Notation format (JSON) in row-major order
http://www.bom.gov.au/fwo/IDN60701/IDN60701.95937.json